createdAt,value
2023-01-02T00:04:48.749Z,3.80
2023-01-02T00:09:50.616Z,3.90
2023-01-02T00:14:52.342Z,3.90
2023-01-02T00:19:54.261Z,3.80
2023-01-02T00:24:55.969Z,3.70
2023-01-02T00:29:57.810Z,3.70
2023-01-02T00:34:59.536Z,3.70
2023-01-02T00:40:01.292Z,3.70
2023-01-02T00:45:03.074Z,3.70
2023-01-02T00:50:05.661Z,3.70
2023-01-02T00:55:07.735Z,3.70
2023-01-02T01:00:10.049Z,3.70
2023-01-02T01:05:12.817Z,3.70
2023-01-02T01:10:14.705Z,3.70
2023-01-02T01:15:16.592Z,3.60
2023-01-02T01:20:18.579Z,3.70
2023-01-02T01:25:20.657Z,3.60
2023-01-02T01:30:22.509Z,3.60
2023-01-02T01:35:24.244Z,3.50
2023-01-02T01:40:25.999Z,3.50
2023-01-02T01:45:27.747Z,3.40
2023-01-02T01:50:35.313Z,3.40
2023-01-02T01:55:53.921Z,3.40
2023-01-02T02:00:56.842Z,3.40
2023-01-02T02:06:00.259Z,3.50
2023-01-02T02:11:02.907Z,3.40
2023-01-02T02:16:12.783Z,3.50
2023-01-02T02:21:55.783Z,3.50
2023-01-02T02:27:14.473Z,3.40
2023-01-02T02:32:26.206Z,3.50
2023-01-02T02:37:27.894Z,3.50
2023-01-02T02:42:51.455Z,3.50
2023-01-02T02:48:24.597Z,3.50
2023-01-02T02:53:47.351Z,3.40
2023-01-02T02:58:49.454Z,3.30
2023-01-02T03:03:51.481Z,3.30
2023-01-02T03:09:22.766Z,3.30
2023-01-02T03:14:33.159Z,3.30
2023-01-02T03:19:50.145Z,3.40
2023-01-02T03:24:55.264Z,3.30
2023-01-02T03:30:07.492Z,3.20
2023-01-02T03:35:15.419Z,3.20
2023-01-02T03:40:22.444Z,3.10
2023-01-02T03:45:31.857Z,3.00
2023-01-02T03:50:40.586Z,3.00
2023-01-02T03:55:55.879Z,3.00
2023-01-02T04:01:12.431Z,2.90
2023-01-02T04:06:16.849Z,3.10
2023-01-02T04:11:22.006Z,3.00
2023-01-02T04:16:29.305Z,3.00
2023-01-02T04:21:36.681Z,3.00
2023-01-02T04:27:08.180Z,3.00
2023-01-02T04:32:37.825Z,3.10
2023-01-02T04:37:42.273Z,3.10
2023-01-02T04:42:43.960Z,3.10
2023-01-02T04:47:47.801Z,2.90
2023-01-02T04:52:49.527Z,3.00
2023-01-02T04:57:51.279Z,3.10
2023-01-02T05:02:53.042Z,3.10
2023-01-02T05:07:55.022Z,3.10
2023-01-02T05:12:59.320Z,3.20
2023-01-02T05:18:01.059Z,3.10
2023-01-02T05:23:21.436Z,3.00
2023-01-02T05:28:23.167Z,2.90
2023-01-02T05:33:24.872Z,2.90
2023-01-02T05:38:26.760Z,2.80
2023-01-02T05:43:33.252Z,2.90
2023-01-02T05:48:35.424Z,2.80
2023-01-02T05:53:37.510Z,2.70
2023-01-02T05:58:41.244Z,2.80
2023-01-02T06:03:51.228Z,2.90
2023-01-02T06:08:53.237Z,2.90
2023-01-02T06:13:55.623Z,3.00
2023-01-02T06:18:57.528Z,2.90
2023-01-02T06:23:59.804Z,2.90
2023-01-02T06:29:01.573Z,2.80
2023-01-02T06:34:04.279Z,2.90
2023-01-02T06:39:06.007Z,2.80
2023-01-02T06:44:12.755Z,2.80
2023-01-02T06:49:14.472Z,2.80
2023-01-02T06:54:16.229Z,2.90
2023-01-02T06:59:17.954Z,2.90
2023-01-02T07:04:19.779Z,2.90
2023-01-02T07:09:21.606Z,2.90
2023-01-02T07:14:23.333Z,2.80
2023-01-02T07:19:25.065Z,2.70
2023-01-02T07:24:26.795Z,2.80
2023-01-02T07:29:28.515Z,2.90
2023-01-02T07:34:30.231Z,2.80
2023-01-02T07:39:31.940Z,2.80
2023-01-02T07:44:33.681Z,2.80
2023-01-02T07:49:35.560Z,2.90
2023-01-02T07:54:37.853Z,2.90
2023-01-02T07:59:39.577Z,2.90
2023-01-02T08:04:41.354Z,2.90
2023-01-02T08:09:43.130Z,2.80
2023-01-02T08:14:44.857Z,2.90
2023-01-02T08:19:46.591Z,3.00
2023-01-02T08:24:48.280Z,3.10
2023-01-02T08:29:50.869Z,3.10
2023-01-02T08:34:52.644Z,3.10
2023-01-02T08:39:54.355Z,3.30
2023-01-02T08:44:56.096Z,3.20
2023-01-02T08:49:57.856Z,3.20
2023-01-02T08:55:00.882Z,3.20
2023-01-02T09:00:04.337Z,3.30
2023-01-02T09:05:06.333Z,3.30
2023-01-02T09:10:08.511Z,3.30
2023-01-02T09:15:10.928Z,3.40
2023-01-02T09:20:12.744Z,3.50
2023-01-02T09:25:18.886Z,3.50
2023-01-02T09:30:23.860Z,3.50
2023-01-02T09:35:25.583Z,3.50
2023-01-02T09:40:28.720Z,3.50
2023-01-02T09:45:31.133Z,3.50
2023-01-02T09:50:32.868Z,3.60
2023-01-02T09:55:45.524Z,3.60
2023-01-02T10:00:50.482Z,3.60
2023-01-02T10:06:10.399Z,3.70
2023-01-02T10:11:46.347Z,3.60
2023-01-02T10:16:53.010Z,3.60
2023-01-02T10:22:00.006Z,3.60
2023-01-02T10:27:04.236Z,3.60
2023-01-02T10:32:18.852Z,3.50
2023-01-02T10:37:20.907Z,3.60
2023-01-02T10:42:23.032Z,3.60
2023-01-02T10:47:38.931Z,3.60
2023-01-02T10:52:50.905Z,3.60
2023-01-02T10:57:52.735Z,3.60
2023-01-02T11:03:17.320Z,3.70
2023-01-02T11:08:22.162Z,3.70
2023-01-02T11:13:23.963Z,3.80
2023-01-02T11:18:27.924Z,3.70
2023-01-02T11:23:35.591Z,3.80
2023-01-02T11:28:40.933Z,3.90
2023-01-02T11:33:43.917Z,3.90
2023-01-02T11:38:49.999Z,3.90
2023-01-02T11:43:57.212Z,4.00
2023-01-02T11:49:05.238Z,4.00
2023-01-02T11:54:17.995Z,4.00
2023-01-02T11:59:32.441Z,4.00
2023-01-02T12:04:34.252Z,3.90
2023-01-02T12:10:02.332Z,4.00
2023-01-02T12:15:30.450Z,4.00
2023-01-02T12:20:49.540Z,4.00
2023-01-02T12:26:12.410Z,4.00
2023-01-02T12:31:36.075Z,4.10
2023-01-02T12:36:48.518Z,4.00
2023-01-02T12:42:02.718Z,4.10
2023-01-02T12:47:16.815Z,4.00
2023-01-02T12:52:36.828Z,4.10
2023-01-02T12:58:05.367Z,4.00
2023-01-02T13:03:29.317Z,4.00
2023-01-02T13:08:55.329Z,4.00
2023-01-02T13:13:57.685Z,4.00
2023-01-02T13:19:22.045Z,4.10
2023-01-02T13:24:26.016Z,4.10
2023-01-02T13:29:42.306Z,4.10
2023-01-02T13:34:53.405Z,4.00
2023-01-02T13:40:00.888Z,4.00
2023-01-02T13:45:10.092Z,4.10
2023-01-02T13:50:17.209Z,4.10
2023-01-02T13:55:22.120Z,4.10
2023-01-02T14:00:35.350Z,4.10
2023-01-02T14:06:14.716Z,4.10
2023-01-02T14:11:27.713Z,4.10
2023-01-02T14:16:45.781Z,4.10
2023-01-02T14:21:54.185Z,4.10
2023-01-02T14:27:24.017Z,4.10
2023-01-02T14:32:34.581Z,4.00
2023-01-02T14:37:45.953Z,4.10
2023-01-02T14:43:20.575Z,4.20
2023-01-02T14:48:58.336Z,4.20
2023-01-02T14:54:33.619Z,4.20
2023-01-02T14:59:39.932Z,4.20
2023-01-02T15:04:46.201Z,4.20
2023-01-02T15:09:53.328Z,4.30
2023-01-02T15:14:56.714Z,4.20
2023-01-02T15:20:01.144Z,4.30
2023-01-02T15:25:03.157Z,4.20
2023-01-02T15:30:30.131Z,4.30
2023-01-02T15:35:35.990Z,4.30
2023-01-02T15:40:39.591Z,4.30
2023-01-02T15:45:46.768Z,4.30
2023-01-02T15:50:57.098Z,4.30
2023-01-02T15:55:59.098Z,4.30
2023-01-02T16:01:18.331Z,4.30
2023-01-02T16:06:28.671Z,4.30
2023-01-02T16:11:31.181Z,4.30
2023-01-02T16:17:04.622Z,4.30
2023-01-02T16:22:30.536Z,4.30
2023-01-02T16:27:38.180Z,4.30
2023-01-02T16:32:48.069Z,4.30
2023-01-02T16:37:51.786Z,4.30
2023-01-02T16:43:03.741Z,4.30
2023-01-02T16:48:07.658Z,4.30
2023-01-02T16:53:12.785Z,4.30
2023-01-02T16:58:14.569Z,4.30
2023-01-02T17:03:19.285Z,4.40
2023-01-02T17:08:21.184Z,4.30
2023-01-02T17:13:23.079Z,4.40
2023-01-02T17:18:25.584Z,4.40
2023-01-02T17:23:27.313Z,4.40
2023-01-02T17:28:29.878Z,4.40
2023-01-02T17:33:31.608Z,4.50
2023-01-02T17:38:33.311Z,4.50
2023-01-02T17:43:35.036Z,4.50
2023-01-02T17:48:36.859Z,4.50
2023-01-02T17:53:38.708Z,4.60
2023-01-02T17:58:40.661Z,4.60
2023-01-02T18:03:42.373Z,4.60
2023-01-02T18:08:45.198Z,4.60
2023-01-02T18:13:48.218Z,4.70
2023-01-02T18:18:50.788Z,4.60
2023-01-02T18:23:57.189Z,4.70
2023-01-02T18:29:09.410Z,4.70
2023-01-02T18:34:46.633Z,4.80
2023-01-02T18:39:42.969Z,4.90
2023-01-02T18:44:44.923Z,5.00
2023-01-02T18:49:46.712Z,5.00
2023-01-02T18:54:56.686Z,5.10
2023-01-02T19:00:17.378Z,5.10
2023-01-02T19:05:28.314Z,5.20
2023-01-02T19:10:41.485Z,5.30
2023-01-02T19:16:02.876Z,5.40
2023-01-02T19:21:28.926Z,5.50
2023-01-02T19:26:42.224Z,5.50
2023-01-02T19:31:51.136Z,5.60
2023-01-02T19:37:12.015Z,5.60
2023-01-02T19:42:20.186Z,5.80
2023-01-02T19:47:24.119Z,5.90
2023-01-02T19:52:27.859Z,5.80
2023-01-02T19:57:29.612Z,5.90
2023-01-02T20:02:31.472Z,6.10
2023-01-02T20:07:33.362Z,6.10
2023-01-02T20:12:40.324Z,6.20
2023-01-02T20:17:42.107Z,6.20
2023-01-02T20:22:44.416Z,6.20
2023-01-02T20:27:46.174Z,6.20
2023-01-02T20:32:48.137Z,6.30
2023-01-02T20:37:49.897Z,6.40
2023-01-02T20:42:51.641Z,6.50
2023-01-02T20:47:53.372Z,6.60
2023-01-02T20:52:57.035Z,6.70
2023-01-02T20:57:59.145Z,6.80
2023-01-02T21:03:00.963Z,6.90
2023-01-02T21:08:03.024Z,7.10
2023-01-02T21:13:07.823Z,7.20
2023-01-02T21:18:10.797Z,7.40
2023-01-02T21:23:14.043Z,7.50
2023-01-02T21:28:17.004Z,7.50
2023-01-02T21:33:21.224Z,7.60
2023-01-02T21:38:23.983Z,7.70
2023-01-02T21:43:25.716Z,7.80
2023-01-02T21:48:27.425Z,7.90
2023-01-02T21:53:29.169Z,8.00
2023-01-02T21:58:30.900Z,8.00
2023-01-02T22:03:32.794Z,8.00
2023-01-02T22:08:34.607Z,8.10
2023-01-02T22:13:36.508Z,8.20
2023-01-02T22:18:38.585Z,8.20
2023-01-02T22:23:40.413Z,8.30
2023-01-02T22:28:43.375Z,8.30
2023-01-02T22:33:45.396Z,8.30
2023-01-02T22:39:17.557Z,8.30
2023-01-02T22:44:24.487Z,8.30
2023-01-02T22:49:29.035Z,8.40
2023-01-02T22:54:30.745Z,8.30
2023-01-02T22:59:32.477Z,8.40
2023-01-02T23:04:34.354Z,8.40
2023-01-02T23:09:36.106Z,8.40
2023-01-02T23:14:37.931Z,8.40
2023-01-02T23:19:39.677Z,8.50
2023-01-02T23:24:41.455Z,8.40
2023-01-02T23:29:43.238Z,8.50
2023-01-02T23:34:45.140Z,8.50
2023-01-02T23:39:46.885Z,8.50
2023-01-02T23:44:48.627Z,8.50
2023-01-02T23:49:50.359Z,8.50
2023-01-02T23:54:52.117Z,8.60
2023-01-02T23:59:53.888Z,8.60
